KFSI/FSI METAR and TAF weather

Enter ICAO airport designator
Station Type Date Time Source
KFSI METAR 2021/05/14 11:56 UTC NOAA

KFSI 141156Z AUTO 17003KT 10SM CLR 11/10 A3020 RMK AO2 SLP223 T01050103 10129 20104 53002 $


Station Type Date Time Source
KFSI Decoded METAR 2021/05/14 11:56 UTC NOAA

Fort Sill, OK, United States (KFSI) 34-36N 098-24W 360M
May 14, 2021 - 07:56 AM EDT / 2021.05.14 1156 UTC
Wind: from the S (170 degrees) at 3 MPH (3 KT):0
Visibility: 10 mile(s):0
Sky conditions: clear
Temperature: 50.9 F (10.5 C)
Dew Point: 50.5 F (10.3 C)
Relative Humidity: 98%
Pressure (altimeter): 30.2 in. Hg (1022 hPa)
Pressure tendency: 0.01 inches (0.2 hPa) higher than three hours ago
ob: KFSI 141156Z AUTO 17003KT 10SM CLR 11/10 A3020 RMK AO2 SLP223 T01050103 10129 20104 53002
cycle: 12

Station Type Date Time Source
KFSI TAF 2020/11/03 14:12 UTC NOAA

TAF KFSI 031400Z 0314/0420 19009KT 9999 SKC QNH3019INS TX19/0320Z TN04/0410Z

Example: see airport list